Time;durP1;ratioP1;P1;durP2;ratioP2;P2;SDS_P1;SDS_P2;PMS_P1;PMS_P2;Temp;Humidity;BMP_temperature;BMP_pressure;BME280_temperature;BME280_humidity;BME280_pressure;Samples;Min_cycle;Max_cycle;Signal;HPM_P1;HPM_P2
2022/01/31 00:01:25;;;;;;;12.00;2.88;;;5.40;94.10;;;;;;4975568;28;20035;-86
2022/01/31 00:03:51;;;;;;;12.85;2.67;;;5.40;94.00;;;;;;4985590;28;20027;-85
2022/01/31 00:06:18;;;;;;;17.05;3.03;;;5.40;93.90;;;;;;4983416;28;20022;-85
2022/01/31 00:08:44;;;;;;;12.55;2.85;;;5.40;93.70;;;;;;4971491;28;20067;-84
2022/01/31 00:11:11;;;;;;;15.82;2.78;;;5.40;93.70;;;;;;4966631;28;20030;-85
2022/01/31 00:13:41;;;;;;;16.85;2.67;;;5.40;93.70;;;;;;4993744;28;20019;-83
2022/01/31 00:16:08;;;;;;;16.40;2.70;;;5.40;93.70;;;;;;4971743;28;20046;-85
2022/01/31 00:18:34;;;;;;;15.05;3.20;;;5.40;93.40;;;;;;4996602;28;20102;-85
2022/01/31 00:21:01;;;;;;;14.63;3.28;;;5.40;93.60;;;;;;4985923;28;20019;-84
2022/01/31 00:23:27;;;;;;;13.82;2.53;;;5.30;93.30;;;;;;4970507;28;20042;-83
2022/01/31 00:25:53;;;;;;;12.02;2.65;;;5.30;93.40;;;;;;4976138;28;20012;-83
2022/01/31 00:28:18;;;;;;;11.95;2.63;;;5.30;93.30;;;;;;4987205;28;20566;-85
2022/01/31 00:30:46;;;;;;;16.95;3.47;;;5.30;93.30;;;;;;4962097;29;20066;-84
2022/01/31 00:33:13;;;;;;;19.98;4.50;;;5.30;93.40;;;;;;4979728;28;20019;-85
2022/01/31 00:35:38;;;;;;;14.02;3.47;;;5.30;93.50;;;;;;4958698;29;20050;-84
2022/01/31 00:38:04;;;;;;;13.40;2.70;;;5.30;93.30;;;;;;4973588;29;20071;-85
2022/01/31 00:40:30;;;;;;;20.73;3.00;;;5.30;93.30;;;;;;4974167;29;20106;-85
2022/01/31 00:42:56;;;;;;;17.77;2.75;;;5.30;92.80;;;;;;4979018;28;20027;-85
2022/01/31 00:45:26;;;;;;;13.93;2.45;;;5.30;92.70;;;;;;4964147;29;20106;-85
2022/01/31 00:48:01;;;;;;;9.05;2.35;;;5.30;92.70;;;;;;4961193;29;20019;-85
2022/01/31 00:50:28;;;;;;;14.90;2.95;;;5.40;92.30;;;;;;4973229;28;20098;-85
2022/01/31 00:52:55;;;;;;;20.50;3.05;;;5.40;92.10;;;;;;4961934;29;20027;-85
2022/01/31 00:55:22;;;;;;;16.80;2.97;;;5.40;91.90;;;;;;4962231;29;20046;-84
2022/01/31 00:57:47;;;;;;;20.65;2.92;;;5.40;92.10;;;;;;4971214;29;20055;-85
2022/01/31 01:00:16;;;;;;;17.08;2.80;;;5.40;92.00;;;;;;4971564;28;20027;-85
2022/01/31 01:02:42;;;;;;;14.68;2.78;;;5.40;91.70;;;;;;4951576;29;20091;-85
2022/01/31 01:05:09;;;;;;;13.05;2.75;;;5.40;91.80;;;;;;4950444;29;20506;-86
2022/01/31 01:07:35;;;;;;;17.70;2.67;;;5.30;91.80;;;;;;4949774;29;20020;-86
2022/01/31 01:10:02;;;;;;;11.43;2.80;;;5.30;91.70;;;;;;5023610;23;20028;-87
2022/01/31 01:12:28;;;;;;;17.20;2.95;;;5.30;91.90;;;;;;4959423;29;20015;-86
2022/01/31 01:14:54;;;;;;;17.35;2.88;;;5.20;92.10;;;;;;4944242;29;20008;-87
2022/01/31 01:17:19;;;;;;;18.90;2.55;;;5.20;92.50;;;;;;4943714;29;20004;-86
2022/01/31 01:19:45;;;;;;;13.07;2.70;;;5.10;92.90;;;;;;4958869;28;20016;-87
2022/01/31 01:22:11;;;;;;;13.93;2.80;;;5.00;93.20;;;;;;4942337;29;20047;-86
2022/01/31 01:24:37;;;;;;;16.48;3.08;;;4.90;93.50;;;;;;4942720;29;20044;-86
2022/01/31 01:27:03;;;;;;;12.38;2.80;;;4.80;93.70;;;;;;4958098;28;20092;-86
2022/01/31 01:29:29;;;;;;;18.45;3.45;;;4.80;93.70;;;;;;4941716;29;20103;-87
2022/01/31 01:31:56;;;;;;;16.40;2.58;;;4.70;93.80;;;;;;4941855;29;20028;-86
2022/01/31 01:34:31;;;;;;;16.75;2.85;;;4.70;93.80;;;;;;4941895;29;20088;-86
2022/01/31 01:36:58;;;;;;;18.25;2.35;;;4.60;94.00;;;;;;4942256;29;20040;-86
2022/01/31 01:39:26;;;;;;;17.08;2.88;;;4.60;94.20;;;;;;4941725;29;20076;-86
2022/01/31 01:41:52;;;;;;;19.55;3.03;;;4.50;94.20;;;;;;4957362;28;20032;-86
2022/01/31 01:44:37;;;;;;;13.90;2.78;;;4.50;94.30;;;;;;4941822;29;20034;-87
2022/01/31 01:47:03;;;;;;;20.00;2.67;;;4.40;94.50;;;;;;4942216;29;20039;-87
2022/01/31 01:49:29;;;;;;;17.15;3.17;;;4.40;94.60;;;;;;4941945;29;20028;-87
2022/01/31 01:51:55;;;;;;;17.70;2.55;;;4.30;94.80;;;;;;4941405;29;20031;-87
2022/01/31 01:54:20;;;;;;;20.00;3.20;;;4.30;94.90;;;;;;4941661;29;20084;-87
2022/01/31 01:56:46;;;;;;;11.90;2.65;;;4.30;94.90;;;;;;4941607;29;20036;-87
2022/01/31 01:59:12;;;;;;;13.32;2.47;;;4.20;95.00;;;;;;4941311;29;20084;-86
2022/01/31 02:01:52;;;;;;;19.65;2.55;;;4.20;95.10;;;;;;4941307;29;20056;-86
2022/01/31 02:04:18;;;;;;;17.85;2.50;;;4.20;95.00;;;;;;4941378;29;20024;-85
2022/01/31 02:06:45;;;;;;;17.13;2.67;;;4.20;95.20;;;;;;4941284;29;20032;-86
2022/01/31 02:09:14;;;;;;;15.23;2.78;;;4.20;95.10;;;;;;4941061;29;20040;-86
2022/01/31 02:11:40;;;;;;;12.45;2.72;;;4.20;95.20;;;;;;4941638;29;20043;-86
2022/01/31 02:14:12;;;;;;;17.08;3.30;;;4.20;95.30;;;;;;4941307;29;20044;-86
2022/01/31 02:16:57;;;;;;;19.60;3.30;;;4.20;95.30;;;;;;4941751;29;20075;-87
2022/01/31 02:19:38;;;;;;;13.30;2.75;;;4.20;95.40;;;;;;4941458;29;20012;-87
2022/01/31 02:22:25;;;;;;;12.70;2.92;;;4.20;95.30;;;;;;4941236;29;20058;-88
2022/01/31 02:24:57;;;;;;;21.05;3.40;;;4.20;95.40;;;;;;4941994;29;20029;-86
2022/01/31 02:27:50;;;;;;;15.40;2.67;;;4.20;95.40;;;;;;4948653;28;20063;-87
2022/01/31 02:30:17;;;;;;;17.77;3.20;;;4.20;95.40;;;;;;4941293;29;20032;-88
2022/01/31 02:32:45;;;;;;;17.15;2.58;;;4.20;95.30;;;;;;4941375;29;20016;-86
2022/01/31 02:35:11;;;;;;;18.20;2.50;;;4.20;95.20;;;;;;4941957;29;20027;-87
2022/01/31 02:37:38;;;;;;;17.17;2.60;;;4.20;95.30;;;;;;4941585;29;20032;-86
2022/01/31 02:40:24;;;;;;;19.15;2.85;;;4.20;95.30;;;;;;4941896;29;20020;-87
2022/01/31 02:42:52;;;;;;;26.40;2.97;;;4.20;95.20;;;;;;4941014;29;20033;-86
2022/01/31 02:45:19;;;;;;;12.48;2.60;;;4.20;95.20;;;;;;4941430;29;20048;-86
2022/01/31 02:47:52;;;;;;;16.77;2.45;;;4.20;95.20;;;;;;4957239;28;20072;-84
2022/01/31 02:50:19;;;;;;;15.32;3.13;;;4.20;95.40;;;;;;4941034;29;20052;-86
2022/01/31 02:52:49;;;;;;;16.17;2.50;;;4.20;95.30;;;;;;4941207;29;20044;-86
2022/01/31 02:55:17;;;;;;;12.20;2.47;;;4.20;95.30;;;;;;4944245;29;20076;-85
2022/01/31 02:57:43;;;;;;;17.20;3.30;;;4.30;95.40;;;;;;4945350;29;20016;-86
2022/01/31 03:00:12;;;;;;;17.17;2.75;;;4.30;95.30;;;;;;4944620;29;20035;-85
2022/01/31 03:03:01;;;;;;;12.85;2.75;;;4.30;95.40;;;;;;4938266;29;20039;-84
2022/01/31 03:05:27;;;;;;;18.02;3.10;;;4.30;95.30;;;;;;4940041;29;20042;-84
2022/01/31 03:07:53;;;;;;;13.43;3.35;;;4.30;95.10;;;;;;4941868;29;20508;-85
2022/01/31 03:10:19;;;;;;;22.83;3.55;;;4.40;95.20;;;;;;4940077;29;20036;-85
2022/01/31 03:12:45;;;;;;;17.73;2.88;;;4.30;94.90;;;;;;4944346;29;20035;-86
2022/01/31 03:15:11;;;;;;;15.80;3.35;;;4.30;95.10;;;;;;4945028;29;20013;-86
2022/01/31 03:17:56;;;;;;;22.13;3.22;;;4.30;95.10;;;;;;4945389;29;20091;-86
2022/01/31 03:20:23;;;;;;;16.20;2.60;;;4.40;95.00;;;;;;4960481;28;20043;-86
2022/01/31 03:22:50;;;;;;;19.10;3.25;;;4.50;94.90;;;;;;4960100;28;20079;-85
2022/01/31 03:25:16;;;;;;;13.07;2.75;;;4.50;94.80;;;;;;4944309;29;20076;-86
2022/01/31 03:27:45;;;;;;;21.90;3.78;;;4.50;94.70;;;;;;4944426;29;20033;-86
2022/01/31 03:30:18;;;;;;;14.70;2.47;;;4.50;94.70;;;;;;4944211;29;20064;-85
2022/01/31 03:32:45;;;;;;;17.55;3.63;;;4.50;94.50;;;;;;4928182;29;20115;-86
2022/01/31 03:35:11;;;;;;;13.48;2.42;;;4.50;94.70;;;;;;4944065;29;20020;-86
2022/01/31 03:37:37;;;;;;;17.23;2.80;;;4.50;94.60;;;;;;4944100;29;20019;-87
2022/01/31 03:40:05;;;;;;;13.02;2.42;;;4.50;94.40;;;;;;4943980;29;20016;-86
2022/01/31 03:42:31;;;;;;;16.77;3.67;;;4.50;94.50;;;;;;4928228;29;20036;-86
2022/01/31 03:44:56;;;;;;;17.02;2.85;;;4.40;94.40;;;;;;4944647;29;20043;-85
2022/01/31 03:47:23;;;;;;;19.55;3.20;;;4.40;94.50;;;;;;4944031;29;20063;-86
2022/01/31 03:49:51;;;;;;;24.15;3.05;;;4.30;94.60;;;;;;4943812;29;20021;-87
2022/01/31 03:52:17;;;;;;;17.10;2.50;;;4.20;94.70;;;;;;4928338;29;20036;-86
2022/01/31 03:54:47;;;;;;;18.23;2.83;;;4.30;94.70;;;;;;4943887;29;20036;-86
2022/01/31 03:57:13;;;;;;;16.63;2.85;;;4.20;94.70;;;;;;4928201;29;20025;-86
2022/01/31 04:00:14;;;;;;;16.90;2.72;;;4.20;94.80;;;;;;4954153;28;20032;-86
2022/01/31 04:02:48;;;;;;;15.77;2.53;;;4.20;94.70;;;;;;4944000;29;20021;-86
2022/01/31 04:05:14;;;;;;;17.42;2.88;;;4.20;94.70;;;;;;4958624;28;20036;-85
2022/01/31 04:07:42;;;;;;;17.52;2.90;;;4.20;94.80;;;;;;4944489;29;20075;-85
2022/01/31 04:10:08;;;;;;;17.88;3.42;;;4.20;94.90;;;;;;4943873;29;20044;-86
2022/01/31 04:12:34;;;;;;;28.42;3.47;;;4.20;94.90;;;;;;4944113;29;20020;-86
2022/01/31 04:14:59;;;;;;;14.15;2.53;;;4.20;94.90;;;;;;4943743;29;20044;-85
2022/01/31 04:17:25;;;;;;;19.45;2.80;;;4.20;94.90;;;;;;4942691;29;20028;-85
2022/01/31 04:19:52;;;;;;;16.27;3.42;;;4.20;95.00;;;;;;4958327;28;20071;-85
2022/01/31 04:22:19;;;;;;;12.25;2.72;;;4.20;94.90;;;;;;4942424;29;20047;-85
2022/01/31 04:24:52;;;;;;;24.67;4.53;;;4.20;95.10;;;;;;4939613;29;20056;-85
2022/01/31 04:27:19;;;;;;;11.73;2.70;;;4.20;95.00;;;;;;4940719;29;20043;-86
2022/01/31 04:29:46;;;;;;;17.65;2.72;;;4.20;95.20;;;;;;4938365;29;20476;-85
2022/01/31 04:32:12;;;;;;;18.75;2.72;;;4.20;95.30;;;;;;4942586;29;20040;-86
2022/01/31 04:34:38;;;;;;;13.98;2.53;;;4.20;95.30;;;;;;4944080;29;20025;-86
2022/01/31 04:37:04;;;;;;;14.88;2.33;;;4.20;95.60;;;;;;4944031;29;20084;-86
2022/01/31 04:39:31;;;;;;;14.63;2.35;;;4.20;96.00;;;;;;4939292;29;20091;-85
2022/01/31 04:41:57;;;;;;;11.52;2.38;;;4.10;96.30;;;;;;4939039;29;20035;-86
2022/01/31 04:44:23;;;;;;;17.92;2.90;;;4.20;96.70;;;;;;4939334;29;20027;-85
2022/01/31 04:46:51;;;;;;;19.17;2.65;;;4.10;97.20;;;;;;4941996;29;20020;-85
2022/01/31 04:49:18;;;;;;;13.77;2.75;;;4.10;97.50;;;;;;4943227;29;20043;-85
2022/01/31 04:51:44;;;;;;;14.68;2.67;;;4.10;98.00;;;;;;4943188;29;20039;-86
2022/01/31 04:54:10;;;;;;;15.55;2.53;;;4.00;98.30;;;;;;4943360;29;20024;-87
2022/01/31 04:56:38;;;;;;;25.80;3.47;;;4.00;98.60;;;;;;4942812;29;20125;-85
2022/01/31 04:59:04;;;;;;;16.92;2.58;;;4.00;98.90;;;;;;4943240;29;20036;-86
2022/01/31 05:01:30;;;;;;;13.15;2.35;;;4.00;99.20;;;;;;4942940;29;20092;-86
2022/01/31 05:03:56;;;;;;;15.02;2.83;;;4.00;99.40;;;;;;4942951;29;20064;-87
2022/01/31 05:06:29;;;;;;;25.42;2.75;;;4.00;99.70;;;;;;4943030;29;20032;-87
2022/01/31 05:08:54;;;;;;;14.55;2.95;;;4.00;99.90;;;;;;4942800;29;20036;-86
2022/01/31 05:11:20;;;;;;;18.65;2.83;;;4.00;99.90;;;;;;4942328;29;20032;-86
2022/01/31 05:13:46;;;;;;;11.18;2.60;;;4.00;99.90;;;;;;4942261;29;20032;-87
2022/01/31 05:16:12;;;;;;;15.05;3.67;;;4.00;99.90;;;;;;4942085;29;20020;-87
2022/01/31 05:18:38;;;;;;;10.00;2.85;;;4.00;99.90;;;;;;4942496;29;20028;-86
2022/01/31 05:21:05;;;;;;;12.80;2.72;;;4.00;99.90;;;;;;4941006;29;20480;-86
2022/01/31 05:23:32;;;;;;;11.18;2.70;;;4.10;99.90;;;;;;4937409;29;20064;-85
2022/01/31 05:25:57;;;;;;;11.48;2.80;;;4.10;99.90;;;;;;4937325;29;20051;-85
2022/01/31 05:28:24;;;;;;;17.20;3.10;;;4.10;99.90;;;;;;4936249;29;20020;-86
2022/01/31 05:30:49;;;;;;;14.25;2.88;;;4.10;99.90;;;;;;4937811;29;20024;-86
2022/01/31 05:33:15;;;;;;;18.15;3.13;;;4.00;99.90;;;;;;4936503;29;20168;-86
2022/01/31 05:35:42;;;;;;;14.02;3.22;;;4.00;99.90;;;;;;4935836;29;20033;-86
2022/01/31 05:38:08;;;;;;;18.48;2.95;;;4.00;99.90;;;;;;4938693;29;20100;-87
2022/01/31 05:40:33;;;;;;;10.60;2.35;;;4.00;99.90;;;;;;4938544;29;20039;-86
2022/01/31 05:42:59;;;;;;;15.05;2.58;;;4.00;99.90;;;;;;4953620;29;20043;-84
2022/01/31 05:45:25;;;;;;;18.77;3.28;;;4.00;99.90;;;;;;4951438;29;20076;-86
2022/01/31 05:47:51;;;;;;;16.02;2.83;;;4.00;99.90;;;;;;4935934;29;20052;-85
2022/01/31 05:50:16;;;;;;;10.73;2.67;;;4.00;99.90;;;;;;4935388;29;20032;-87
2022/01/31 05:52:43;;;;;;;10.45;2.65;;;4.00;99.90;;;;;;4933286;29;20048;-86
2022/01/31 05:55:09;;;;;;;16.55;2.85;;;4.00;99.90;;;;;;4941808;29;20028;-88
2022/01/31 05:57:35;;;;;;;12.93;2.70;;;4.00;99.90;;;;;;4942553;29;20052;-87
2022/01/31 06:00:04;;;;;;;15.32;3.13;;;4.10;99.90;;;;;;4942269;29;20031;-85
2022/01/31 06:02:30;;;;;;;17.10;2.78;;;4.10;99.90;;;;;;4942085;29;20019;-86
2022/01/31 06:04:58;;;;;;;13.10;2.40;;;4.10;99.90;;;;;;4941513;29;20008;-87
2022/01/31 06:07:24;;;;;;;18.13;2.30;;;4.10;99.90;;;;;;4941444;29;20072;-87
2022/01/31 06:09:50;;;;;;;10.65;2.33;;;4.10;99.90;;;;;;4925199;29;20064;-88
2022/01/31 06:12:16;;;;;;;15.30;3.35;;;4.10;99.90;;;;;;4956846;28;20036;-86
2022/01/31 06:14:42;;;;;;;17.17;2.75;;;4.10;99.90;;;;;;4941666;29;20036;-86
2022/01/31 06:17:08;;;;;;;16.85;2.75;;;4.10;99.90;;;;;;4940676;29;20052;-87
2022/01/31 06:19:34;;;;;;;13.15;2.97;;;4.10;99.90;;;;;;4937966;29;20036;-86
2022/01/31 06:22:00;;;;;;;14.63;3.08;;;4.00;99.90;;;;;;4956020;28;20080;-86
2022/01/31 06:24:26;;;;;;;15.48;2.47;;;4.10;99.90;;;;;;4940381;29;20024;-86
2022/01/31 06:26:53;;;;;;;11.18;2.30;;;4.10;99.90;;;;;;4940164;29;20086;-87
2022/01/31 06:29:21;;;;;;;12.13;2.30;;;4.10;99.90;;;;;;4939004;29;20055;-87
2022/01/31 06:31:53;;;;;;;17.83;2.70;;;4.10;99.90;;;;;;4938633;29;20032;-87
2022/01/31 06:34:19;;;;;;;13.60;2.55;;;4.20;99.90;;;;;;4935504;29;20044;-86
2022/01/31 06:36:46;;;;;;;15.35;2.72;;;4.30;99.90;;;;;;4948196;29;20043;-85
2022/01/31 06:39:12;;;;;;;28.90;9.55;;;4.30;99.90;;;;;;4933279;29;20104;-87
2022/01/31 06:41:37;;;;;;;24.20;9.20;;;4.30;99.90;;;;;;4935742;29;20077;-88
2022/01/31 06:44:03;;;;;;;15.45;3.55;;;4.30;99.90;;;;;;4935585;29;20036;-88
2022/01/31 06:46:29;;;;;;;13.63;3.03;;;4.40;99.90;;;;;;4932721;29;20036;-88
2022/01/31 06:48:55;;;;;;;13.68;2.63;;;4.40;99.90;;;;;;4932332;29;20044;-86
2022/01/31 06:51:21;;;;;;;18.02;3.22;;;4.50;99.90;;;;;;4932259;29;20039;-87
2022/01/31 06:53:49;;;;;;;12.95;2.83;;;4.50;99.90;;;;;;4937485;29;20100;-86
2022/01/31 06:56:16;;;;;;;12.23;3.00;;;4.50;99.90;;;;;;4940586;29;20020;-87
2022/01/31 06:58:42;;;;;;;15.07;3.00;;;4.60;99.90;;;;;;4939554;29;20028;-88
2022/01/31 07:01:08;;;;;;;13.20;2.85;;;4.60;99.90;;;;;;4939401;29;20026;-88
2022/01/31 07:03:36;;;;;;;27.50;2.83;;;4.60;99.90;;;;;;4937620;29;20036;-88
2022/01/31 07:06:02;;;;;;;9.88;2.47;;;4.60;99.90;;;;;;4933658;29;20024;-86
2022/01/31 07:08:28;;;;;;;22.15;2.72;;;4.60;99.90;;;;;;4919646;29;20059;-86
2022/01/31 07:10:54;;;;;;;13.20;3.03;;;4.60;99.90;;;;;;4953309;23;20039;-85
2022/01/31 07:15:58;;;;;;;12.32;2.90;;;4.60;99.90;;;;;;4943189;29;20123;-84
2022/01/31 07:18:24;;;;;;;18.88;3.13;;;4.60;99.90;;;;;;4943345;29;20051;-85
2022/01/31 07:20:52;;;;;;;17.58;3.53;;;4.60;99.90;;;;;;4943191;29;20051;-85
2022/01/31 07:23:26;;;;;;;17.50;3.38;;;4.60;99.90;;;;;;4940120;29;20052;-84
2022/01/31 07:25:54;;;;;;;12.20;2.88;;;4.70;99.90;;;;;;4944698;29;20033;-82
2022/01/31 07:28:20;;;;;;;22.35;3.78;;;4.70;99.90;;;;;;4931304;29;20028;-83
2022/01/31 07:30:49;;;;;;;18.20;2.63;;;4.70;99.90;;;;;;4926929;29;20192;-80
2022/01/31 07:33:16;;;;;;;15.50;2.65;;;4.80;99.90;;;;;;4926210;29;20628;-83
2022/01/31 07:35:43;;;;;;;14.70;2.80;;;5.00;99.90;;;;;;4925640;29;20096;-82
2022/01/31 07:38:10;;;;;;;17.90;2.88;;;5.00;99.90;;;;;;4926527;29;20024;-80
2022/01/31 07:40:37;;;;;;;17.88;3.22;;;5.10;99.90;;;;;;4936072;29;20032;-81
2022/01/31 07:43:04;;;;;;;24.02;3.72;;;5.10;99.90;;;;;;4935522;29;20032;-82
2022/01/31 07:45:30;;;;;;;16.23;2.80;;;5.20;99.90;;;;;;4929929;29;20108;-81
2022/01/31 07:47:56;;;;;;;16.98;2.67;;;5.10;99.90;;;;;;4933642;29;20514;-81
2022/01/31 07:50:22;;;;;;;22.42;3.10;;;5.20;99.90;;;;;;4930567;29;20054;-83
2022/01/31 07:52:47;;;;;;;13.10;3.03;;;5.30;99.90;;;;;;4929392;29;20040;-81
2022/01/31 07:55:15;;;;;;;11.90;2.40;;;5.30;99.90;;;;;;4928438;29;20078;-81
2022/01/31 07:57:42;;;;;;;15.70;2.83;;;5.40;99.90;;;;;;4924269;29;20020;-82
2022/01/31 08:00:09;;;;;;;15.35;3.05;;;5.40;99.90;;;;;;4943289;29;20035;-84
2022/01/31 08:02:41;;;;;;;12.48;3.05;;;5.40;99.90;;;;;;4937815;29;20111;-83
2022/01/31 08:05:08;;;;;;;10.60;2.60;;;5.40;99.90;;;;;;4933491;29;20111;-83
2022/01/31 08:07:35;;;;;;;13.85;2.88;;;5.40;99.90;;;;;;4946769;29;20034;-82
2022/01/31 08:10:02;;;;;;;13.32;3.70;;;5.20;99.90;;;;;;4930256;29;20124;-82
2022/01/31 08:12:29;;;;;;;16.20;3.80;;;5.10;99.90;;;;;;4923086;29;20042;-81
2022/01/31 08:15:01;;;;;;;12.63;2.75;;;5.10;99.90;;;;;;4946235;29;20034;-81
2022/01/31 08:17:27;;;;;;;14.63;3.35;;;5.00;99.90;;;;;;4941239;29;20122;-80
2022/01/31 08:19:53;;;;;;;17.75;2.83;;;4.90;99.90;;;;;;4945489;29;20028;-83
2022/01/31 08:22:18;;;;;;;18.25;3.20;;;4.80;99.90;;;;;;4940384;29;20052;-84
2022/01/31 08:24:45;;;;;;;16.02;3.15;;;4.70;99.90;;;;;;4925791;29;20028;-81
2022/01/31 08:27:10;;;;;;;13.57;3.75;;;4.70;99.90;;;;;;4926539;29;20386;-83
2022/01/31 08:29:38;;;;;;;15.40;3.03;;;4.70;99.90;;;;;;4926273;29;20095;-84
2022/01/31 08:32:09;;;;;;;17.02;3.10;;;4.70;99.90;;;;;;4947308;29;20043;-82
2022/01/31 08:37:25;;;;;;;16.30;2.85;;;4.80;99.90;;;;;;4938349;29;20039;-81
2022/01/31 08:39:51;;;;;;;16.15;3.90;;;4.80;99.90;;;;;;4945618;29;20027;-82
2022/01/31 08:42:17;;;;;;;21.27;3.58;;;4.80;99.90;;;;;;4948864;29;20067;-84
2022/01/31 08:44:43;;;;;;;17.67;3.65;;;4.80;99.90;;;;;;4950480;29;20048;-83
2022/01/31 08:47:09;;;;;;;17.33;3.17;;;4.70;99.90;;;;;;4944894;29;20031;-85
2022/01/31 08:49:36;;;;;;;15.77;3.15;;;4.80;99.90;;;;;;4942043;29;20043;-84
2022/01/31 08:52:03;;;;;;;15.45;3.20;;;4.80;99.90;;;;;;4946220;29;20032;-82
2022/01/31 08:54:29;;;;;;;20.52;4.00;;;4.80;99.90;;;;;;4946752;29;20042;-83
2022/01/31 08:56:55;;;;;;;15.05;2.90;;;4.80;99.90;;;;;;4945178;29;20030;-84
2022/01/31 08:59:24;;;;;;;21.48;3.55;;;4.80;99.90;;;;;;4946364;29;20047;-84
2022/01/31 09:02:03;;;;;;;10.70;2.88;;;4.90;99.90;;;;;;4955926;29;20032;-82
2022/01/31 09:04:47;;;;;;;16.92;3.28;;;4.90;99.90;;;;;;4947572;29;20372;-83
2022/01/31 09:07:21;;;;;;;17.92;3.50;;;4.80;99.90;;;;;;4945665;29;20042;-82
2022/01/31 09:09:52;;;;;;;22.93;4.07;;;4.90;99.90;;;;;;4946500;29;20040;-82
2022/01/31 09:12:18;;;;;;;13.32;3.10;;;4.90;99.90;;;;;;4937641;29;20039;-86
2022/01/31 09:14:45;;;;;;;27.60;3.47;;;4.80;99.90;;;;;;4944946;29;20023;-83
2022/01/31 09:17:11;;;;;;;18.88;4.30;;;4.80;99.90;;;;;;4920405;29;20035;-83
2022/01/31 09:19:37;;;;;;;22.35;3.42;;;4.90;99.90;;;;;;4942359;29;20031;-83
2022/01/31 09:22:03;;;;;;;26.35;4.18;;;4.90;99.90;;;;;;4944066;29;20190;-83
2022/01/31 09:24:29;;;;;;;17.38;3.88;;;4.90;99.90;;;;;;4943585;29;20028;-82
2022/01/31 09:27:00;;;;;;;17.65;3.92;;;4.90;99.90;;;;;;4942845;29;20031;-82
2022/01/31 09:29:26;;;;;;;13.68;3.78;;;4.90;99.90;;;;;;4942653;29;20492;-83
2022/01/31 09:31:52;;;;;;;17.80;4.18;;;4.90;99.90;;;;;;4928454;29;20067;-84
2022/01/31 09:34:19;;;;;;;18.02;4.43;;;4.90;99.90;;;;;;4942377;29;20031;-85
2022/01/31 09:36:45;;;;;;;24.63;4.45;;;4.90;99.90;;;;;;4941483;29;20036;-82
2022/01/31 09:39:11;;;;;;;22.10;4.28;;;5.00;99.90;;;;;;4946705;29;20031;-84
2022/01/31 09:41:39;;;;;;;20.60;4.35;;;5.00;99.90;;;;;;4950691;29;20539;-83
2022/01/31 09:45:03;;;;;;;21.30;3.85;;;5.00;99.90;;;;;;4942798;29;20050;-83
2022/01/31 09:47:06;;;;;;;24.88;4.35;;;4.90;99.90;;;;;;4938412;29;20460;-83
2022/01/31 09:49:33;;;;;;;26.27;4.25;;;5.00;99.90;;;;;;4954064;29;20050;-83
2022/01/31 09:51:58;;;;;;;17.27;3.88;;;5.00;99.90;;;;;;4955623;29;20095;-83
2022/01/31 09:54:27;;;;;;;11.50;3.70;;;5.00;99.90;;;;;;4954308;29;20031;-83
2022/01/31 09:56:53;;;;;;;23.83;5.18;;;5.00;99.90;;;;;;4961555;29;20148;-82
2022/01/31 09:59:19;;;;;;;26.65;4.38;;;5.10;99.90;;;;;;4946566;29;20042;-82
2022/01/31 10:01:52;;;;;;;17.50;4.38;;;5.00;99.90;;;;;;4945259;29;20115;-83
2022/01/31 10:04:23;;;;;;;22.08;4.82;;;5.10;99.90;;;;;;4944880;29;20106;-85
2022/01/31 10:06:58;;;;;;;17.15;4.40;;;5.10;99.90;;;;;;4944002;29;20042;-86
2022/01/31 10:09:29;;;;;;;19.30;3.80;;;5.10;99.90;;;;;;4928766;29;20032;-83
2022/01/31 10:12:09;;;;;;;35.05;5.30;;;5.10;99.90;;;;;;4953383;29;20046;-83
2022/01/31 10:17:30;;;;;;;22.73;4.70;;;5.10;99.90;;;;;;4945780;28;20031;-83
2022/01/31 10:20:03;;;;;;;12.13;3.95;;;5.20;99.90;;;;;;4953947;28;20036;-81
2022/01/31 10:22:32;;;;;;;22.05;4.28;;;5.20;99.90;;;;;;4944239;29;20437;-82
2022/01/31 10:25:05;;;;;;;16.23;3.83;;;5.20;99.90;;;;;;4942597;29;20036;-83
2022/01/31 10:27:34;;;;;;;19.02;4.20;;;5.10;99.90;;;;;;4953472;29;20042;-82
2022/01/31 10:30:11;;;;;;;25.85;4.90;;;5.00;99.90;;;;;;4949357;29;20241;-82
2022/01/31 10:32:39;;;;;;;25.63;4.60;;;4.90;99.90;;;;;;4948647;29;20041;-81
2022/01/31 10:35:20;;;;;;;17.85;4.90;;;4.90;99.90;;;;;;4942888;29;20038;-84
2022/01/31 10:37:47;;;;;;;17.50;3.88;;;5.10;99.90;;;;;;4952653;29;20032;-83
2022/01/31 10:53:51;;;;;;;17.45;3.45;;;5.30;99.90;;;;;;4946367;29;20096;-83
2022/01/31 10:56:17;;;;;;;18.42;4.07;;;5.40;99.90;;;;;;4944422;29;20035;-84
2022/01/31 10:59:04;;;;;;;14.98;3.42;;;5.40;99.90;;;;;;4943376;29;20508;-83
2022/01/31 11:01:31;;;;;;;14.90;3.78;;;5.40;99.90;;;;;;4942982;29;20039;-83
2022/01/31 11:04:03;;;;;;;11.00;3.38;;;5.40;99.90;;;;;;4944647;29;20027;-84
2022/01/31 11:06:30;;;;;;;18.67;3.70;;;5.40;99.90;;;;;;4943306;29;20039;-83
2022/01/31 11:09:08;;;;;;;13.48;3.20;;;5.40;99.90;;;;;;4941644;29;20111;-83
2022/01/31 11:11:36;;;;;;;14.10;3.47;;;5.40;99.90;;;;;;4941470;29;20032;-84
2022/01/31 11:14:03;;;;;;;21.02;3.60;;;5.40;99.90;;;;;;4941000;29;20103;-83
2022/01/31 11:16:30;;;;;;;12.25;3.47;;;5.50;99.90;;;;;;4945971;29;20031;-84
2022/01/31 11:19:02;;;;;;;11.23;3.40;;;5.50;99.90;;;;;;4946159;29;20202;-85
2022/01/31 11:21:35;;;;;;;17.08;4.05;;;5.60;99.90;;;;;;4951546;29;20055;-82
2022/01/31 11:24:04;;;;;;;9.27;3.22;;;5.60;99.90;;;;;;4958559;29;20034;-82
2022/01/31 11:26:40;;;;;;;40.92;12.55;;;5.50;99.90;;;;;;4957096;29;20023;-81
2022/01/31 11:29:07;;;;;;;10.38;3.35;;;5.60;99.90;;;;;;4954079;29;20045;-83
2022/01/31 11:31:36;;;;;;;17.42;3.45;;;5.60;99.90;;;;;;4957637;29;20015;-82
2022/01/31 11:34:05;;;;;;;11.52;3.38;;;5.70;99.90;;;;;;4954421;29;20037;-85
2022/01/31 11:36:33;;;;;;;17.35;3.35;;;5.80;99.90;;;;;;4951487;29;20396;-84
2022/01/31 11:39:01;;;;;;;13.05;3.30;;;5.80;99.90;;;;;;4953325;29;20055;-83
2022/01/31 11:41:27;;;;;;;16.55;3.30;;;5.80;99.90;;;;;;4948892;29;20023;-82
2022/01/31 11:44:06;;;;;;;19.02;3.75;;;5.90;99.90;;;;;;4946993;29;20031;-83
2022/01/31 11:46:34;;;;;;;12.88;3.83;;;5.90;99.90;;;;;;4945691;29;20114;-83
2022/01/31 11:49:14;;;;;;;12.88;3.30;;;6.10;99.90;;;;;;4944690;29;20020;-84
2022/01/31 11:52:03;;;;;;;13.23;3.28;;;6.10;99.90;;;;;;4952728;29;20024;-83
2022/01/31 11:54:30;;;;;;;17.60;3.90;;;6.20;99.90;;;;;;4946438;29;20028;-86
2022/01/31 11:56:56;;;;;;;18.08;3.60;;;6.40;99.90;;;;;;4950705;29;20083;-87
2022/01/31 11:59:24;;;;;;;10.00;3.33;;;6.60;99.90;;;;;;4950642;29;20032;-85
2022/01/31 12:01:57;;;;;;;10.00;3.10;;;6.80;99.90;;;;;;4949766;29;20036;-86
2022/01/31 12:04:23;;;;;;;13.68;3.15;;;6.90;99.90;;;;;;4945397;29;20062;-85
2022/01/31 12:06:50;;;;;;;9.55;3.40;;;6.80;99.90;;;;;;4940453;29;20031;-85
2022/01/31 12:09:20;;;;;;;15.27;2.88;;;6.90;99.90;;;;;;4946231;29;20044;-84
2022/01/31 12:12:07;;;;;;;14.27;3.13;;;6.80;99.90;;;;;;4946650;29;20028;-85
2022/01/31 12:15:05;;;;;;;13.00;3.65;;;6.70;99.90;;;;;;4917189;29;20166;-85
2022/01/31 12:18:04;;;;;;;12.57;3.13;;;6.70;99.90;;;;;;4946694;29;20060;-85
2022/01/31 12:21:59;;;;;;;17.45;4.88;;;6.80;99.90;;;;;;4960546;28;20024;-90
2022/01/31 12:23:39;;;;;;;12.90;3.47;;;7.00;99.90;;;;;;4956201;29;20048;-90
2022/01/31 12:26:33;;;;;;;11.52;3.28;;;7.10;99.90;;;;;;4947759;29;20034;-87
2022/01/31 12:29:12;;;;;;;11.77;3.13;;;6.90;99.90;;;;;;4942764;29;20031;-88
2022/01/31 12:31:48;;;;;;;12.57;2.75;;;6.90;99.90;;;;;;4944443;29;20032;-86
2022/01/31 12:34:17;;;;;;;8.43;3.05;;;6.90;99.90;;;;;;4942140;29;20024;-86
2022/01/31 12:36:42;;;;;;;10.18;3.03;;;6.80;99.90;;;;;;4948368;29;20492;-86
2022/01/31 12:39:28;;;;;;;7.20;1.90;;;6.90;99.90;;;;;;4948394;29;20051;-87
2022/01/31 12:42:03;;;;;;;7.03;2.53;;;6.80;99.90;;;;;;4949212;29;20032;-86
2022/01/31 12:44:32;;;;;;;9.10;2.65;;;6.60;99.90;;;;;;4938157;29;20035;-86
2022/01/31 12:47:08;;;;;;;6.60;2.50;;;6.50;99.90;;;;;;4946958;29;20062;-84
2022/01/31 12:49:34;;;;;;;10.07;3.08;;;6.50;99.90;;;;;;4938102;29;20036;-85
2022/01/31 12:52:05;;;;;;;6.55;1.85;;;6.60;99.90;;;;;;4928367;29;20036;-87
2022/01/31 12:54:33;;;;;;;3.83;2.10;;;6.70;99.90;;;;;;4942137;29;20043;-85
2022/01/31 12:57:07;;;;;;;3.95;1.60;;;6.60;99.90;;;;;;4949174;28;20020;-84
2022/01/31 12:59:33;;;;;;;8.32;2.20;;;6.60;99.90;;;;;;4956917;28;20038;-88
2022/01/31 13:02:04;;;;;;;9.82;2.00;;;6.70;99.90;;;;;;4949811;29;20019;-86
2022/01/31 13:04:30;;;;;;;8.02;2.10;;;6.90;99.90;;;;;;4945949;29;20044;-86
2022/01/31 13:06:59;;;;;;;6.15;1.98;;;6.80;99.90;;;;;;4943022;29;20063;-86
2022/01/31 13:09:38;;;;;;;4.88;1.85;;;6.80;99.90;;;;;;4946969;29;20036;-86
2022/01/31 13:12:11;;;;;;;3.00;1.70;;;6.90;99.90;;;;;;4979060;23;20035;-86
2022/01/31 13:14:45;;;;;;;4.68;1.52;;;7.00;99.90;;;;;;4960665;28;20085;-84
2022/01/31 13:17:16;;;;;;;5.95;1.63;;;7.00;99.90;;;;;;4954884;28;20024;-86
2022/01/31 13:19:54;;;;;;;2.67;1.40;;;7.00;99.90;;;;;;4941693;29;20024;-85